createdAt,value
2022-11-29T00:00:15.361Z,31.40
2022-11-29T00:03:02.949Z,31.30
2022-11-29T00:05:30.418Z,31.40
2022-11-29T00:07:57.764Z,46.60
2022-11-29T00:10:25.100Z,46.00
2022-11-29T00:12:52.631Z,35.80
2022-11-29T00:15:20.061Z,35.40
2022-11-29T00:17:47.716Z,32.60
2022-11-29T00:20:15.161Z,31.40
2022-11-29T00:22:42.532Z,31.60
2022-11-29T00:25:09.930Z,29.70
2022-11-29T00:27:37.363Z,49.10
2022-11-29T00:30:04.982Z,52.30
2022-11-29T00:32:32.445Z,47.50
2022-11-29T00:35:01.266Z,34.80
2022-11-29T00:37:30.420Z,36.20
2022-11-29T00:39:57.786Z,29.80
2022-11-29T00:42:25.157Z,32.80
2022-11-29T00:44:52.894Z,34.00
2022-11-29T00:47:20.264Z,27.90
2022-11-29T00:49:47.817Z,52.90
2022-11-29T00:52:15.491Z,60.10
2022-11-29T00:54:43.265Z,48.60
2022-11-29T00:57:10.859Z,33.90
2022-11-29T00:59:38.229Z,34.00
2022-11-29T01:02:05.671Z,41.10
2022-11-29T01:04:33.172Z,40.30
2022-11-29T01:07:00.571Z,36.20
2022-11-29T01:09:27.928Z,50.10
2022-11-29T01:11:55.528Z,56.90
2022-11-29T01:14:22.868Z,45.30
2022-11-29T01:16:50.475Z,38.60
2022-11-29T01:19:17.883Z,36.50
2022-11-29T01:21:45.576Z,34.70
2022-11-29T01:24:13.122Z,32.80
2022-11-29T01:29:43.639Z,58.20
2022-11-29T01:32:11.025Z,60.00
2022-11-29T01:34:38.410Z,43.50
2022-11-29T01:37:06.077Z,33.00
2022-11-29T01:39:33.773Z,36.40
2022-11-29T01:42:01.342Z,34.90
2022-11-29T01:44:28.917Z,29.80
2022-11-29T01:46:56.366Z,30.10
2022-11-29T01:49:23.806Z,29.10
2022-11-29T01:51:51.276Z,49.70
2022-11-29T01:54:18.716Z,49.90
2022-11-29T01:56:49.218Z,44.70
2022-11-29T01:59:19.367Z,35.50
2022-11-29T02:01:47.182Z,35.40
2022-11-29T02:04:14.598Z,31.30
2022-11-29T02:06:42.119Z,28.70
2022-11-29T02:09:09.467Z,28.90
2022-11-29T02:11:36.808Z,23.00
2022-11-29T02:14:04.350Z,27.50
2022-11-29T02:16:31.808Z,46.90
2022-11-29T02:18:59.284Z,44.30
2022-11-29T02:21:26.729Z,36.90
2022-11-29T02:23:54.253Z,27.50
2022-11-29T02:26:21.737Z,28.40
2022-11-29T02:28:49.175Z,28.40
2022-11-29T02:31:16.591Z,29.70
2022-11-29T02:33:43.961Z,29.00
2022-11-29T02:36:11.333Z,36.80
2022-11-29T02:38:38.682Z,48.40
2022-11-29T02:41:06.017Z,44.20
2022-11-29T02:43:33.394Z,30.80
2022-11-29T02:46:00.837Z,29.50
2022-11-29T02:48:28.465Z,28.10
2022-11-29T02:50:55.868Z,23.70
2022-11-29T02:53:23.250Z,29.20
2022-11-29T02:55:50.593Z,29.00
2022-11-29T02:58:18.192Z,28.80
2022-11-29T03:00:45.826Z,43.10
2022-11-29T03:03:13.320Z,41.70
2022-11-29T03:05:40.864Z,42.00
2022-11-29T03:08:08.498Z,31.50
2022-11-29T03:10:35.874Z,32.80
2022-11-29T03:13:03.407Z,28.10
2022-11-29T03:15:31.134Z,27.60
2022-11-29T03:17:58.749Z,29.40
2022-11-29T03:20:26.479Z,26.30
2022-11-29T03:22:54.016Z,31.10
2022-11-29T03:25:21.844Z,47.00
2022-11-29T03:27:49.493Z,46.00
2022-11-29T03:30:16.928Z,31.30
2022-11-29T03:32:44.311Z,32.50
2022-11-29T03:35:12.020Z,31.50
2022-11-29T03:37:39.394Z,32.00
2022-11-29T03:40:06.983Z,28.40
2022-11-29T03:42:34.781Z,25.10
2022-11-29T03:45:02.531Z,26.40
2022-11-29T03:47:30.008Z,48.40
2022-11-29T03:49:57.457Z,49.30
2022-11-29T03:52:24.841Z,39.60
2022-11-29T03:54:52.472Z,33.10
2022-11-29T03:57:20.154Z,31.80
2022-11-29T03:59:47.875Z,32.50
2022-11-29T04:02:15.368Z,28.00
2022-11-29T04:04:43.584Z,27.50
2022-11-29T04:07:11.393Z,27.10
2022-11-29T04:09:38.838Z,43.00
2022-11-29T04:12:06.278Z,49.40
2022-11-29T04:14:34.024Z,33.70
2022-11-29T04:17:01.514Z,29.90
2022-11-29T04:19:28.912Z,28.30
2022-11-29T04:21:56.348Z,26.90
2022-11-29T04:24:23.805Z,25.10
2022-11-29T04:26:51.153Z,22.90
2022-11-29T04:29:18.814Z,21.20
2022-11-29T04:31:46.321Z,41.70
2022-11-29T04:34:13.758Z,48.60
2022-11-29T04:36:41.172Z,44.20
2022-11-29T04:39:08.831Z,26.30
2022-11-29T04:41:36.365Z,26.30
2022-11-29T04:44:04.129Z,26.90
2022-11-29T04:46:31.614Z,27.00
2022-11-29T04:48:59.156Z,26.10
2022-11-29T04:51:26.638Z,25.30
2022-11-29T04:53:54.027Z,49.80
2022-11-29T04:56:21.627Z,53.70
2022-11-29T04:58:49.033Z,51.50
2022-11-29T05:01:16.552Z,31.90
2022-11-29T05:03:46.653Z,35.80
2022-11-29T05:06:14.271Z,31.30
2022-11-29T05:08:41.911Z,30.40
2022-11-29T05:11:09.602Z,27.90
2022-11-29T05:13:37.278Z,26.60
2022-11-29T05:16:04.713Z,28.00
2022-11-29T05:18:32.310Z,48.60
2022-11-29T05:21:00.229Z,52.80
2022-11-29T05:23:27.592Z,44.40
2022-11-29T05:25:55.119Z,35.10
2022-11-29T05:28:22.633Z,33.80
2022-11-29T05:30:50.089Z,30.80
2022-11-29T05:33:17.540Z,27.20
2022-11-29T05:35:44.927Z,24.60
2022-11-29T05:38:12.419Z,41.70
2022-11-29T05:40:39.837Z,45.00
2022-11-29T05:43:07.264Z,38.10
2022-11-29T05:45:34.789Z,29.10
2022-11-29T05:48:02.154Z,26.70
2022-11-29T05:50:29.959Z,26.60
2022-11-29T05:52:57.399Z,26.00
2022-11-29T05:55:24.913Z,25.30
2022-11-29T05:57:52.389Z,22.90
2022-11-29T06:00:20.019Z,42.60
2022-11-29T06:02:47.508Z,48.60
2022-11-29T06:05:15.050Z,42.50
2022-11-29T06:07:42.520Z,26.60
2022-11-29T06:10:10.027Z,30.00
2022-11-29T06:12:37.531Z,28.10
2022-11-29T06:15:04.945Z,29.50
2022-11-29T06:17:38.565Z,30.40
2022-11-29T06:20:06.770Z,15.90
2022-11-29T06:22:34.356Z,28.00
2022-11-29T06:25:01.753Z,46.30
2022-11-29T06:27:29.302Z,49.50
2022-11-29T06:29:56.811Z,46.40
2022-11-29T06:32:24.173Z,49.10
2022-11-29T06:34:51.673Z,50.50
2022-11-29T06:37:19.118Z,29.20
2022-11-29T06:39:46.589Z,26.60
2022-11-29T06:42:14.085Z,38.20
2022-11-29T06:44:41.600Z,43.80
2022-11-29T06:47:08.989Z,37.10
2022-11-29T06:49:36.441Z,25.20
2022-11-29T06:52:03.818Z,24.70
2022-11-29T06:54:31.176Z,21.40
2022-11-29T06:56:58.728Z,20.40
2022-11-29T06:59:26.085Z,20.90
2022-11-29T07:01:53.511Z,32.70
2022-11-29T07:04:21.039Z,35.00
2022-11-29T07:06:48.410Z,25.30
2022-11-29T07:09:16.046Z,23.60
2022-11-29T07:11:43.576Z,22.80
2022-11-29T07:14:11.190Z,22.90
2022-11-29T07:16:38.660Z,19.90
2022-11-29T07:19:06.236Z,22.50
2022-11-29T07:21:33.886Z,45.20
2022-11-29T07:24:01.245Z,49.20
2022-11-29T07:26:28.893Z,80.80
2022-11-29T07:28:56.423Z,55.00
2022-11-29T07:31:23.873Z,18.30
2022-11-29T07:33:51.546Z,24.30
2022-11-29T07:36:19.030Z,22.10
2022-11-29T07:38:46.488Z,20.60
2022-11-29T07:41:13.985Z,27.10
2022-11-29T07:43:41.408Z,29.30
2022-11-29T07:46:08.872Z,25.70
2022-11-29T07:48:36.255Z,23.90
2022-11-29T07:51:03.611Z,23.40
2022-11-29T07:53:30.987Z,22.00
2022-11-29T07:55:58.505Z,18.60
2022-11-29T07:58:26.070Z,20.00
2022-11-29T08:00:53.713Z,21.00
2022-11-29T08:03:21.599Z,27.20
2022-11-29T08:05:49.416Z,28.50
2022-11-29T08:08:17.219Z,28.50
2022-11-29T08:10:44.626Z,23.50
2022-11-29T08:13:12.044Z,22.50
2022-11-29T08:15:39.628Z,20.40
2022-11-29T08:18:07.272Z,20.00
2022-11-29T08:20:34.616Z,20.00
2022-11-29T08:23:02.292Z,17.20
2022-11-29T08:25:29.681Z,24.60
2022-11-29T08:27:57.073Z,26.40
2022-11-29T08:30:24.535Z,25.30
2022-11-29T08:32:52.072Z,22.50
2022-11-29T08:35:19.410Z,20.60
2022-11-29T08:37:46.795Z,20.20
2022-11-29T08:40:14.921Z,24.00
2022-11-29T08:42:42.531Z,30.90
2022-11-29T08:45:09.943Z,25.60
2022-11-29T08:47:37.337Z,27.80
2022-11-29T08:50:04.908Z,23.20
2022-11-29T08:52:32.474Z,23.80
2022-11-29T08:55:03.194Z,23.90
2022-11-29T08:57:39.890Z,25.60
2022-11-29T09:00:08.045Z,25.40
2022-11-29T09:02:35.507Z,23.90
2022-11-29T09:05:03.040Z,22.70
2022-11-29T09:07:30.469Z,24.10
2022-11-29T09:09:58.210Z,22.90
2022-11-29T09:12:25.575Z,21.30
2022-11-29T09:14:53.005Z,22.60
2022-11-29T09:17:20.422Z,27.80
2022-11-29T09:19:47.812Z,26.90
2022-11-29T09:22:15.221Z,26.00
2022-11-29T09:24:42.827Z,24.10
2022-11-29T09:27:10.672Z,22.00
2022-11-29T09:29:38.164Z,20.20
2022-11-29T09:32:05.629Z,20.10
2022-11-29T09:34:33.044Z,22.50
2022-11-29T09:37:00.400Z,19.60
2022-11-29T09:39:27.840Z,18.20
2022-11-29T09:41:55.304Z,18.30
2022-11-29T09:44:22.723Z,20.10
2022-11-29T09:46:52.254Z,19.40
2022-11-29T09:49:23.186Z,20.00
2022-11-29T09:51:50.691Z,21.80
2022-11-29T09:54:18.158Z,21.80
2022-11-29T09:56:45.899Z,21.00
2022-11-29T09:59:13.266Z,17.40
2022-11-29T10:01:40.668Z,26.10
2022-11-29T10:04:08.315Z,12.40
2022-11-29T10:06:35.665Z,19.20
2022-11-29T10:09:03.365Z,17.40
2022-11-29T10:11:30.856Z,19.20
2022-11-29T10:13:58.386Z,11.30
2022-11-29T10:16:26.184Z,17.10
2022-11-29T10:18:53.633Z,10.90
2022-11-29T10:21:21.224Z,20.60
2022-11-29T10:23:48.578Z,20.50
2022-11-29T10:26:15.975Z,13.00
2022-11-29T10:28:43.340Z,14.50
2022-11-29T10:31:10.813Z,15.50
2022-11-29T10:33:38.252Z,16.00
2022-11-29T10:36:06.222Z,15.40
2022-11-29T10:38:34.611Z,13.90
2022-11-29T10:41:02.070Z,13.70
2022-11-29T10:43:29.464Z,14.40
2022-11-29T10:45:56.876Z,13.40
2022-11-29T10:48:24.324Z,15.90
2022-11-29T10:50:51.834Z,13.60
2022-11-29T10:53:19.493Z,14.00
2022-11-29T10:55:46.905Z,14.10
2022-11-29T10:58:14.287Z,14.30
2022-11-29T11:00:41.673Z,14.50
2022-11-29T11:03:09.008Z,11.60
2022-11-29T11:05:36.473Z,14.30
2022-11-29T11:08:03.918Z,14.70
2022-11-29T11:10:31.745Z,14.10
2022-11-29T11:12:59.389Z,14.70
2022-11-29T11:15:26.990Z,17.30
2022-11-29T11:17:54.509Z,14.90
2022-11-29T11:20:21.919Z,15.30
2022-11-29T11:22:49.507Z,13.50
2022-11-29T11:25:16.906Z,14.60
2022-11-29T11:27:44.328Z,13.20
2022-11-29T11:30:11.876Z,16.70
2022-11-29T11:32:39.466Z,14.70
2022-11-29T11:35:06.973Z,15.40
2022-11-29T11:37:34.338Z,15.80
2022-11-29T11:40:01.878Z,14.60
2022-11-29T11:42:29.294Z,16.80
2022-11-29T11:44:56.709Z,16.20
2022-11-29T11:47:24.058Z,17.00
2022-11-29T11:49:51.502Z,15.80
2022-11-29T11:52:18.899Z,14.70
2022-11-29T11:54:46.644Z,14.80
2022-11-29T11:57:14.246Z,15.00
2022-11-29T11:59:41.792Z,14.90
2022-11-29T12:02:09.254Z,14.80
2022-11-29T12:04:36.700Z,15.80
2022-11-29T12:07:04.300Z,16.00
2022-11-29T12:09:32.098Z,14.70
2022-11-29T12:11:59.624Z,13.70
2022-11-29T12:14:27.230Z,12.60
2022-11-29T12:16:54.804Z,13.40
2022-11-29T12:19:22.476Z,10.20
2022-11-29T12:21:49.917Z,9.90
2022-11-29T12:24:17.484Z,11.70
2022-11-29T12:27:00.669Z,11.50
2022-11-29T12:29:28.268Z,12.30
2022-11-29T12:31:55.750Z,10.60
2022-11-29T12:34:23.222Z,12.20
2022-11-29T12:36:50.835Z,9.60
2022-11-29T12:39:18.343Z,10.50
2022-11-29T12:41:50.945Z,11.70
2022-11-29T12:44:21.219Z,11.30
2022-11-29T12:46:48.730Z,8.60
2022-11-29T12:49:16.555Z,11.70
2022-11-29T12:51:44.010Z,9.60
2022-11-29T12:54:11.705Z,9.40
2022-11-29T12:56:39.387Z,10.50
2022-11-29T12:59:06.918Z,12.50
2022-11-29T13:01:34.724Z,10.90
2022-11-29T13:04:02.418Z,12.20
2022-11-29T13:06:29.801Z,13.50
2022-11-29T13:08:57.297Z,13.00
2022-11-29T13:11:24.634Z,20.20
2022-11-29T13:13:52.500Z,15.80
2022-11-29T13:16:23.945Z,14.90
2022-11-29T13:18:54.001Z,14.10
2022-11-29T13:21:21.682Z,15.40
2022-11-29T13:26:36.735Z,15.80
2022-11-29T13:29:04.183Z,12.80
2022-11-29T13:31:32.042Z,15.10
2022-11-29T13:33:59.790Z,15.00
2022-11-29T13:36:27.166Z,15.20
2022-11-29T13:38:54.557Z,14.30
2022-11-29T13:41:21.925Z,12.80
2022-11-29T13:43:49.490Z,16.00
2022-11-29T13:46:17.201Z,15.20
2022-11-29T13:48:44.943Z,13.80
2022-11-29T13:51:12.648Z,15.00
2022-11-29T13:53:43.901Z,17.10
2022-11-29T13:56:14.480Z,17.20
2022-11-29T13:58:41.923Z,15.10
2022-11-29T14:01:09.381Z,15.90
2022-11-29T14:03:36.886Z,17.30
2022-11-29T14:06:04.324Z,16.30
2022-11-29T14:08:48.077Z,15.90
2022-11-29T14:11:19.195Z,18.20
2022-11-29T14:13:47.245Z,17.50
2022-11-29T14:16:14.923Z,15.70
2022-11-29T14:18:42.476Z,13.30
2022-11-29T14:21:09.968Z,15.60
2022-11-29T14:23:37.353Z,14.10
2022-11-29T14:26:04.748Z,11.80
2022-11-29T14:28:32.626Z,15.10
2022-11-29T14:31:00.294Z,15.60
2022-11-29T14:33:27.979Z,17.60
2022-11-29T14:35:55.369Z,18.60
2022-11-29T14:38:27.720Z,9.70
2022-11-29T14:40:58.482Z,15.80
2022-11-29T14:43:25.875Z,18.50
2022-11-29T14:45:53.335Z,18.00
2022-11-29T14:48:20.718Z,17.20
2022-11-29T14:50:48.354Z,18.40
2022-11-29T14:53:15.836Z,16.80
2022-11-29T14:55:43.153Z,20.30
2022-11-29T14:58:10.695Z,21.80
2022-11-29T15:00:38.073Z,20.50
2022-11-29T15:03:05.507Z,21.10
2022-11-29T15:05:33.009Z,20.10
2022-11-29T15:08:00.511Z,19.60
2022-11-29T15:10:27.964Z,25.80
2022-11-29T15:12:55.518Z,30.00
2022-11-29T15:15:23.344Z,27.80
2022-11-29T15:17:50.752Z,19.60
2022-11-29T15:20:18.217Z,20.40
2022-11-29T15:22:45.715Z,22.60
2022-11-29T15:25:13.146Z,24.20
2022-11-29T15:27:40.543Z,23.30
2022-11-29T15:30:08.380Z,27.30
2022-11-29T15:32:35.959Z,30.20
2022-11-29T15:35:03.325Z,27.60
2022-11-29T15:37:31.015Z,22.00
2022-11-29T15:39:58.452Z,20.90
2022-11-29T15:42:31.212Z,20.10
2022-11-29T15:44:59.994Z,27.20
2022-11-29T15:47:27.615Z,32.40
2022-11-29T15:49:55.155Z,24.00
2022-11-29T15:52:22.636Z,21.20
2022-11-29T15:54:50.037Z,21.60
2022-11-29T15:57:17.520Z,24.70
2022-11-29T15:59:44.861Z,25.80
2022-11-29T16:02:12.443Z,39.20
2022-11-29T16:04:45.063Z,38.00
2022-11-29T16:07:14.188Z,31.70
2022-11-29T16:09:41.720Z,26.20
2022-11-29T16:12:09.121Z,23.80
2022-11-29T16:14:36.511Z,24.50
2022-11-29T16:17:04.048Z,26.10
2022-11-29T16:19:31.449Z,25.00
2022-11-29T16:21:58.804Z,34.60
2022-11-29T16:24:26.150Z,34.40
2022-11-29T16:26:53.500Z,20.20
2022-11-29T16:29:20.931Z,20.00
2022-11-29T16:31:48.625Z,18.00
2022-11-29T16:34:16.500Z,12.30
2022-11-29T16:36:43.878Z,16.40
2022-11-29T16:39:11.474Z,29.70
2022-11-29T16:41:39.054Z,27.20
2022-11-29T16:44:06.414Z,24.40
2022-11-29T16:46:34.083Z,19.70
2022-11-29T16:49:01.676Z,19.60
2022-11-29T16:51:29.157Z,19.80
2022-11-29T16:53:56.755Z,22.10
2022-11-29T16:56:24.182Z,30.20
2022-11-29T16:59:20.698Z,29.50
2022-11-29T17:01:39.079Z,38.80
2022-11-29T17:04:06.472Z,25.80
2022-11-29T17:06:33.887Z,24.40
2022-11-29T17:09:05.173Z,18.50
2022-11-29T17:11:32.633Z,23.10
2022-11-29T17:14:00.193Z,29.00
2022-11-29T17:16:27.592Z,19.30
2022-11-29T17:18:55.509Z,20.60
2022-11-29T17:21:23.140Z,18.90
2022-11-29T17:23:50.702Z,19.00
2022-11-29T17:26:18.331Z,23.60
2022-11-29T17:28:46.000Z,25.90
2022-11-29T17:31:13.463Z,26.30
2022-11-29T17:33:40.957Z,28.40
2022-11-29T17:36:08.647Z,23.20
2022-11-29T17:38:36.025Z,21.60
2022-11-29T17:41:03.807Z,20.60
2022-11-29T17:43:31.555Z,18.90
2022-11-29T17:45:59.036Z,14.20
2022-11-29T17:48:32.008Z,22.00
2022-11-29T17:51:00.897Z,16.00
2022-11-29T17:53:28.638Z,19.40
2022-11-29T17:55:56.031Z,13.80
2022-11-29T17:58:23.768Z,13.90
2022-11-29T18:00:51.212Z,16.50
2022-11-29T18:03:18.626Z,22.50
2022-11-29T18:05:46.044Z,15.40
2022-11-29T18:08:13.383Z,20.20
2022-11-29T18:10:40.755Z,17.80
2022-11-29T18:13:08.124Z,19.70
2022-11-29T18:15:35.605Z,18.30
2022-11-29T18:18:03.003Z,20.10
2022-11-29T18:20:30.451Z,19.40
2022-11-29T18:22:57.829Z,25.30
2022-11-29T18:25:40.640Z,27.30
2022-11-29T18:28:08.125Z,22.40
2022-11-29T18:30:35.739Z,23.40
2022-11-29T18:33:03.252Z,20.80
2022-11-29T18:35:30.880Z,22.70
2022-11-29T18:38:14.822Z,24.80
2022-11-29T18:40:42.910Z,26.60
2022-11-29T18:43:10.474Z,22.40
2022-11-29T18:45:38.028Z,20.80
2022-11-29T18:48:05.698Z,19.00
2022-11-29T18:50:33.304Z,19.40
2022-11-29T18:53:00.718Z,22.50
2022-11-29T18:55:28.132Z,21.00
2022-11-29T18:57:55.514Z,18.70
2022-11-29T19:00:22.868Z,17.20
2022-11-29T19:02:50.557Z,11.10
2022-11-29T19:05:18.183Z,25.00
2022-11-29T19:07:45.689Z,23.00
2022-11-29T19:10:13.250Z,40.90
2022-11-29T19:12:41.047Z,22.80
2022-11-29T19:15:08.430Z,21.40
2022-11-29T19:17:41.664Z,19.60
2022-11-29T19:20:10.428Z,12.60
2022-11-29T19:22:38.287Z,12.20
2022-11-29T19:25:05.716Z,13.70
2022-11-29T19:27:33.449Z,24.20
2022-11-29T19:30:00.820Z,23.20
2022-11-29T19:32:28.186Z,17.10
2022-11-29T19:34:55.574Z,19.30
2022-11-29T19:37:22.968Z,21.20
2022-11-29T19:39:50.714Z,20.90
2022-11-29T19:42:18.334Z,26.70
2022-11-29T19:45:15.300Z,20.00
2022-11-29T19:47:33.204Z,16.10
2022-11-29T19:50:02.550Z,14.50
2022-11-29T19:52:31.553Z,24.00
2022-11-29T19:54:59.218Z,22.80
2022-11-29T19:57:26.567Z,23.00
2022-11-29T19:59:53.968Z,23.50
2022-11-29T20:02:21.478Z,17.70
2022-11-29T20:04:49.001Z,17.70
2022-11-29T20:07:17.047Z,17.70
2022-11-29T20:09:45.275Z,22.00
2022-11-29T20:12:13.168Z,27.20
2022-11-29T20:14:40.561Z,20.50
2022-11-29T20:17:08.312Z,20.70
2022-11-29T20:19:35.801Z,19.40
2022-11-29T20:22:03.495Z,22.30
2022-11-29T20:24:36.640Z,25.50
2022-11-29T20:27:06.882Z,26.80
2022-11-29T20:29:34.575Z,25.00
2022-11-29T20:32:01.977Z,17.40
2022-11-29T20:34:29.866Z,20.60
2022-11-29T20:36:57.314Z,21.20
2022-11-29T20:39:25.748Z,17.20
2022-11-29T20:41:53.125Z,25.40
2022-11-29T20:44:20.540Z,26.60
2022-11-29T20:46:48.176Z,21.30
2022-11-29T20:49:15.599Z,17.50
2022-11-29T20:51:43.019Z,21.70
2022-11-29T20:54:10.829Z,14.00
2022-11-29T20:56:38.313Z,19.40
2022-11-29T20:59:05.718Z,21.40
2022-11-29T21:01:33.145Z,19.70
2022-11-29T21:04:00.598Z,18.60
2022-11-29T21:06:28.040Z,17.00
2022-11-29T21:08:55.406Z,14.40
2022-11-29T21:11:22.813Z,20.70
2022-11-29T21:13:50.246Z,23.90
2022-11-29T21:16:17.645Z,23.00
2022-11-29T21:18:45.137Z,21.40
2022-11-29T21:21:12.528Z,15.70
2022-11-29T21:23:40.193Z,18.00
2022-11-29T21:26:07.822Z,22.60
2022-11-29T21:28:35.678Z,21.20
2022-11-29T21:31:04.183Z,21.40
2022-11-29T21:33:33.532Z,20.30
2022-11-29T21:36:00.913Z,21.60
2022-11-29T21:38:28.280Z,21.00
2022-11-29T21:40:55.651Z,17.60
2022-11-29T21:43:43.677Z,21.70
2022-11-29T21:46:10.447Z,20.30
2022-11-29T21:48:38.012Z,20.80
2022-11-29T21:51:05.518Z,21.10
2022-11-29T21:53:33.015Z,20.70
2022-11-29T21:56:00.396Z,20.50
2022-11-29T21:58:27.797Z,11.40
2022-11-29T22:00:55.160Z,16.50
2022-11-29T22:03:22.564Z,18.30
2022-11-29T22:05:49.993Z,23.00
2022-11-29T22:08:17.395Z,20.00
2022-11-29T22:10:44.801Z,20.00
2022-11-29T22:13:12.495Z,16.10
2022-11-29T22:15:40.066Z,22.20
2022-11-29T22:18:07.462Z,18.40
2022-11-29T22:20:35.016Z,15.60
2022-11-29T22:23:02.523Z,15.90
2022-11-29T22:25:30.064Z,17.10
2022-11-29T22:27:57.602Z,18.10
2022-11-29T22:30:25.536Z,14.30
2022-11-29T22:32:53.064Z,11.20
2022-11-29T22:35:20.679Z,15.40
2022-11-29T22:37:48.314Z,22.50
2022-11-29T22:40:15.754Z,20.30
2022-11-29T22:42:43.318Z,13.50
2022-11-29T22:45:10.834Z,16.00
2022-11-29T22:47:38.220Z,16.90
2022-11-29T22:50:05.880Z,16.60
2022-11-29T22:52:33.549Z,15.40
2022-11-29T22:55:04.736Z,19.90
2022-11-29T22:57:32.742Z,26.80
2022-11-29T23:00:00.120Z,20.50
2022-11-29T23:02:27.655Z,19.60
2022-11-29T23:04:55.158Z,16.20
2022-11-29T23:07:22.549Z,16.40
2022-11-29T23:09:50.236Z,19.50
2022-11-29T23:12:17.864Z,16.60
2022-11-29T23:14:45.520Z,27.00
2022-11-29T23:17:13.387Z,19.50
2022-11-29T23:19:41.093Z,11.10
2022-11-29T23:22:08.617Z,7.70
2022-11-29T23:24:36.011Z,19.70
2022-11-29T23:27:03.352Z,16.90
2022-11-29T23:29:30.713Z,16.00
2022-11-29T23:31:58.118Z,11.90
2022-11-29T23:34:25.509Z,12.80
2022-11-29T23:36:53.371Z,16.60
2022-11-29T23:39:20.904Z,14.00
2022-11-29T23:41:48.313Z,18.90
2022-11-29T23:44:15.913Z,16.90
2022-11-29T23:46:43.429Z,13.50
2022-11-29T23:49:11.036Z,12.70
2022-11-29T23:51:38.365Z,14.10
2022-11-29T23:54:05.765Z,14.20
2022-11-29T23:56:33.438Z,14.50
2022-11-29T23:59:00.899Z,16.20
